sensor_id;sensor_type;location;lat;lon;timestamp;P1;durP1;ratioP1;P2;durP2;ratioP2
40995;SDS011;26723;57.478;12.066;2023-06-10T00:00:30;0.70;;;0.70;;
40995;SDS011;26723;57.478;12.066;2023-06-10T00:03:39;0.77;;;0.77;;
40995;SDS011;26723;57.478;12.066;2023-06-10T00:06:50;0.80;;;0.80;;
40995;SDS011;26723;57.478;12.066;2023-06-10T00:09:59;0.75;;;0.63;;
40995;SDS011;26723;57.478;12.066;2023-06-10T00:13:12;0.82;;;0.82;;
40995;SDS011;26723;57.478;12.066;2023-06-10T00:16:21;0.70;;;0.70;;
40995;SDS011;26723;57.478;12.066;2023-06-10T00:19:29;0.70;;;0.70;;
40995;SDS011;26723;57.478;12.066;2023-06-10T00:22:38;0.70;;;0.70;;
40995;SDS011;26723;57.478;12.066;2023-06-10T00:25:48;1.55;;;0.70;;
40995;SDS011;26723;57.478;12.066;2023-06-10T00:28:58;0.63;;;0.63;;
40995;SDS011;26723;57.478;12.066;2023-06-10T00:32:07;0.60;;;0.60;;
40995;SDS011;26723;57.478;12.066;2023-06-10T00:35:16;2.03;;;0.63;;
40995;SDS011;26723;57.478;12.066;2023-06-10T00:38:24;0.73;;;0.73;;
40995;SDS011;26723;57.478;12.066;2023-06-10T00:41:33;0.80;;;0.80;;
40995;SDS011;26723;57.478;12.066;2023-06-10T00:44:45;0.60;;;0.60;;
40995;SDS011;26723;57.478;12.066;2023-06-10T00:47:54;0.70;;;0.70;;
40995;SDS011;26723;57.478;12.066;2023-06-10T00:51:03;0.70;;;0.70;;
40995;SDS011;26723;57.478;12.066;2023-06-10T00:54:13;0.68;;;0.60;;
40995;SDS011;26723;57.478;12.066;2023-06-10T00:57:21;0.80;;;0.80;;
40995;SDS011;26723;57.478;12.066;2023-06-10T01:00:31;0.70;;;0.70;;
40995;SDS011;26723;57.478;12.066;2023-06-10T01:03:41;0.80;;;0.80;;
40995;SDS011;26723;57.478;12.066;2023-06-10T01:06:54;0.95;;;0.80;;
40995;SDS011;26723;57.478;12.066;2023-06-10T01:10:15;0.88;;;0.88;;
40995;SDS011;26723;57.478;12.066;2023-06-10T01:13:28;0.82;;;0.82;;
40995;SDS011;26723;57.478;12.066;2023-06-10T01:16:40;1.30;;;0.90;;
40995;SDS011;26723;57.478;12.066;2023-06-10T01:19:53;0.80;;;0.80;;
40995;SDS011;26723;57.478;12.066;2023-06-10T01:23:04;0.88;;;0.88;;
40995;SDS011;26723;57.478;12.066;2023-06-10T01:26:12;0.77;;;0.77;;
40995;SDS011;26723;57.478;12.066;2023-06-10T01:29:24;1.55;;;0.73;;
40995;SDS011;26723;57.478;12.066;2023-06-10T01:32:43;0.77;;;0.77;;
40995;SDS011;26723;57.478;12.066;2023-06-10T01:35:54;0.52;;;0.52;;
40995;SDS011;26723;57.478;12.066;2023-06-10T01:39:06;0.82;;;0.82;;
40995;SDS011;26723;57.478;12.066;2023-06-10T01:42:16;0.68;;;0.68;;
40995;SDS011;26723;57.478;12.066;2023-06-10T01:45:25;0.77;;;0.77;;
40995;SDS011;26723;57.478;12.066;2023-06-10T01:48:33;1.05;;;0.77;;
40995;SDS011;26723;57.478;12.066;2023-06-10T01:51:42;0.73;;;0.73;;
40995;SDS011;26723;57.478;12.066;2023-06-10T01:54:52;0.75;;;0.63;;
40995;SDS011;26723;57.478;12.066;2023-06-10T01:58:00;0.65;;;0.65;;
40995;SDS011;26723;57.478;12.066;2023-06-10T02:01:09;0.75;;;0.75;;
40995;SDS011;26723;57.478;12.066;2023-06-10T02:04:17;0.68;;;0.68;;
40995;SDS011;26723;57.478;12.066;2023-06-10T02:07:26;0.80;;;0.80;;
40995;SDS011;26723;57.478;12.066;2023-06-10T02:10:36;1.60;;;0.73;;
40995;SDS011;26723;57.478;12.066;2023-06-10T02:13:44;0.75;;;0.75;;
40995;SDS011;26723;57.478;12.066;2023-06-10T02:16:52;0.60;;;0.60;;
40995;SDS011;26723;57.478;12.066;2023-06-10T02:20:03;0.50;;;0.50;;
40995;SDS011;26723;57.478;12.066;2023-06-10T02:23:13;0.63;;;0.63;;
40995;SDS011;26723;57.478;12.066;2023-06-10T02:26:23;0.70;;;0.70;;
40995;SDS011;26723;57.478;12.066;2023-06-10T02:29:33;0.98;;;0.98;;
40995;SDS011;26723;57.478;12.066;2023-06-10T02:32:42;0.70;;;0.70;;
40995;SDS011;26723;57.478;12.066;2023-06-10T02:35:56;0.82;;;0.82;;
40995;SDS011;26723;57.478;12.066;2023-06-10T02:39:06;0.77;;;0.77;;
40995;SDS011;26723;57.478;12.066;2023-06-10T02:42:16;0.60;;;0.60;;
40995;SDS011;26723;57.478;12.066;2023-06-10T02:45:25;0.45;;;0.45;;
40995;SDS011;26723;57.478;12.066;2023-06-10T02:48:40;0.65;;;0.65;;
40995;SDS011;26723;57.478;12.066;2023-06-10T02:51:52;0.60;;;0.60;;
40995;SDS011;26723;57.478;12.066;2023-06-10T02:55:01;0.70;;;0.70;;
40995;SDS011;26723;57.478;12.066;2023-06-10T02:58:11;0.85;;;0.80;;
40995;SDS011;26723;57.478;12.066;2023-06-10T03:01:20;0.50;;;0.50;;
40995;SDS011;26723;57.478;12.066;2023-06-10T03:04:37;0.85;;;0.50;;
40995;SDS011;26723;57.478;12.066;2023-06-10T03:07:51;0.60;;;0.60;;
40995;SDS011;26723;57.478;12.066;2023-06-10T03:11:00;0.32;;;0.32;;
40995;SDS011;26723;57.478;12.066;2023-06-10T03:14:12;0.57;;;0.57;;
40995;SDS011;26723;57.478;12.066;2023-06-10T03:17:20;0.68;;;0.68;;
40995;SDS011;26723;57.478;12.066;2023-06-10T03:20:29;0.60;;;0.60;;
40995;SDS011;26723;57.478;12.066;2023-06-10T03:23:37;1.00;;;0.43;;
40995;SDS011;26723;57.478;12.066;2023-06-10T03:26:46;0.35;;;0.35;;
40995;SDS011;26723;57.478;12.066;2023-06-10T03:29:57;0.50;;;0.50;;
40995;SDS011;26723;57.478;12.066;2023-06-10T03:33:06;0.50;;;0.50;;
40995;SDS011;26723;57.478;12.066;2023-06-10T03:36:15;0.50;;;0.50;;
40995;SDS011;26723;57.478;12.066;2023-06-10T03:39:25;0.40;;;0.40;;
40995;SDS011;26723;57.478;12.066;2023-06-10T03:42:37;0.50;;;0.50;;
40995;SDS011;26723;57.478;12.066;2023-06-10T03:45:50;0.73;;;0.73;;
40995;SDS011;26723;57.478;12.066;2023-06-10T03:48:59;1.00;;;0.63;;
40995;SDS011;26723;57.478;12.066;2023-06-10T03:52:08;0.50;;;0.50;;
40995;SDS011;26723;57.478;12.066;2023-06-10T03:55:17;0.50;;;0.50;;
40995;SDS011;26723;57.478;12.066;2023-06-10T03:58:29;0.63;;;0.63;;
40995;SDS011;26723;57.478;12.066;2023-06-10T04:01:39;0.40;;;0.40;;
40995;SDS011;26723;57.478;12.066;2023-06-10T04:04:47;0.70;;;0.70;;
40995;SDS011;26723;57.478;12.066;2023-06-10T04:07:58;0.40;;;0.40;;
40995;SDS011;26723;57.478;12.066;2023-06-10T04:11:08;0.45;;;0.45;;
40995;SDS011;26723;57.478;12.066;2023-06-10T04:14:16;0.57;;;0.57;;
40995;SDS011;26723;57.478;12.066;2023-06-10T04:17:28;0.82;;;0.60;;
40995;SDS011;26723;57.478;12.066;2023-06-10T04:20:37;0.57;;;0.57;;
40995;SDS011;26723;57.478;12.066;2023-06-10T04:23:45;0.38;;;0.38;;
40995;SDS011;26723;57.478;12.066;2023-06-10T04:26:54;0.50;;;0.50;;
40995;SDS011;26723;57.478;12.066;2023-06-10T04:30:03;0.85;;;0.40;;
40995;SDS011;26723;57.478;12.066;2023-06-10T04:33:17;0.30;;;0.30;;
40995;SDS011;26723;57.478;12.066;2023-06-10T04:36:27;0.40;;;0.40;;
40995;SDS011;26723;57.478;12.066;2023-06-10T04:39:36;0.50;;;0.50;;
40995;SDS011;26723;57.478;12.066;2023-06-10T04:42:46;0.68;;;0.40;;
40995;SDS011;26723;57.478;12.066;2023-06-10T04:45:55;0.50;;;0.50;;
40995;SDS011;26723;57.478;12.066;2023-06-10T04:49:05;0.50;;;0.50;;
40995;SDS011;26723;57.478;12.066;2023-06-10T04:52:14;0.50;;;0.50;;
40995;SDS011;26723;57.478;12.066;2023-06-10T04:55:26;0.63;;;0.50;;
40995;SDS011;26723;57.478;12.066;2023-06-10T04:58:34;0.57;;;0.57;;
40995;SDS011;26723;57.478;12.066;2023-06-10T05:01:43;0.38;;;0.38;;
40995;SDS011;26723;57.478;12.066;2023-06-10T05:04:52;0.40;;;0.40;;
40995;SDS011;26723;57.478;12.066;2023-06-10T05:08:01;0.47;;;0.47;;
40995;SDS011;26723;57.478;12.066;2023-06-10T05:11:13;0.52;;;0.52;;
40995;SDS011;26723;57.478;12.066;2023-06-10T05:14:22;0.40;;;0.40;;
40995;SDS011;26723;57.478;12.066;2023-06-10T05:17:30;0.82;;;0.40;;
40995;SDS011;26723;57.478;12.066;2023-06-10T05:20:40;0.40;;;0.40;;
40995;SDS011;26723;57.478;12.066;2023-06-10T05:23:49;2.00;;;0.60;;
40995;SDS011;26723;57.478;12.066;2023-06-10T05:26:57;0.50;;;0.50;;
40995;SDS011;26723;57.478;12.066;2023-06-10T05:30:06;0.40;;;0.40;;
40995;SDS011;26723;57.478;12.066;2023-06-10T05:33:16;0.40;;;0.40;;
40995;SDS011;26723;57.478;12.066;2023-06-10T05:36:26;0.50;;;0.50;;
40995;SDS011;26723;57.478;12.066;2023-06-10T05:39:35;0.38;;;0.38;;
40995;SDS011;26723;57.478;12.066;2023-06-10T05:42:45;1.50;;;0.60;;
40995;SDS011;26723;57.478;12.066;2023-06-10T05:45:53;0.93;;;0.47;;
40995;SDS011;26723;57.478;12.066;2023-06-10T05:49:02;0.60;;;0.60;;
40995;SDS011;26723;57.478;12.066;2023-06-10T05:52:12;0.40;;;0.40;;
40995;SDS011;26723;57.478;12.066;2023-06-10T05:55:20;0.50;;;0.50;;
40995;SDS011;26723;57.478;12.066;2023-06-10T05:58:29;0.55;;;0.50;;
40995;SDS011;26723;57.478;12.066;2023-06-10T06:01:37;0.38;;;0.38;;
40995;SDS011;26723;57.478;12.066;2023-06-10T06:04:46;0.47;;;0.47;;
40995;SDS011;26723;57.478;12.066;2023-06-10T06:07:56;0.68;;;0.68;;
40995;SDS011;26723;57.478;12.066;2023-06-10T06:11:04;0.60;;;0.60;;
40995;SDS011;26723;57.478;12.066;2023-06-10T06:14:13;0.43;;;0.40;;
40995;SDS011;26723;57.478;12.066;2023-06-10T06:17:21;0.88;;;0.43;;
40995;SDS011;26723;57.478;12.066;2023-06-10T06:20:30;0.40;;;0.40;;
40995;SDS011;26723;57.478;12.066;2023-06-10T06:23:39;0.85;;;0.50;;
40995;SDS011;26723;57.478;12.066;2023-06-10T06:26:48;0.30;;;0.30;;
40995;SDS011;26723;57.478;12.066;2023-06-10T06:29:56;0.50;;;0.50;;
40995;SDS011;26723;57.478;12.066;2023-06-10T06:33:05;1.42;;;0.40;;
40995;SDS011;26723;57.478;12.066;2023-06-10T06:36:14;0.43;;;0.43;;
40995;SDS011;26723;57.478;12.066;2023-06-10T06:39:24;0.30;;;0.30;;
40995;SDS011;26723;57.478;12.066;2023-06-10T06:42:33;0.40;;;0.40;;
40995;SDS011;26723;57.478;12.066;2023-06-10T06:45:56;0.32;;;0.32;;
40995;SDS011;26723;57.478;12.066;2023-06-10T06:49:05;0.80;;;0.43;;
40995;SDS011;26723;57.478;12.066;2023-06-10T06:52:14;0.40;;;0.40;;
40995;SDS011;26723;57.478;12.066;2023-06-10T06:55:24;1.55;;;0.50;;
40995;SDS011;26723;57.478;12.066;2023-06-10T06:58:32;0.60;;;0.60;;
40995;SDS011;26723;57.478;12.066;2023-06-10T07:01:41;0.63;;;0.40;;
40995;SDS011;26723;57.478;12.066;2023-06-10T07:04:49;0.45;;;0.45;;
40995;SDS011;26723;57.478;12.066;2023-06-10T07:07:58;0.45;;;0.45;;
40995;SDS011;26723;57.478;12.066;2023-06-10T07:11:08;0.55;;;0.50;;
40995;SDS011;26723;57.478;12.066;2023-06-10T07:14:16;0.43;;;0.43;;
40995;SDS011;26723;57.478;12.066;2023-06-10T07:17:24;0.40;;;0.40;;
40995;SDS011;26723;57.478;12.066;2023-06-10T07:20:34;0.55;;;0.47;;
40995;SDS011;26723;57.478;12.066;2023-06-10T07:23:42;0.38;;;0.38;;
40995;SDS011;26723;57.478;12.066;2023-06-10T07:26:52;0.43;;;0.43;;
40995;SDS011;26723;57.478;12.066;2023-06-10T07:30:01;0.35;;;0.35;;
40995;SDS011;26723;57.478;12.066;2023-06-10T07:33:10;0.85;;;0.40;;
40995;SDS011;26723;57.478;12.066;2023-06-10T07:36:18;2.22;;;0.50;;
40995;SDS011;26723;57.478;12.066;2023-06-10T07:39:27;0.47;;;0.47;;
40995;SDS011;26723;57.478;12.066;2023-06-10T07:42:36;0.82;;;0.40;;
40995;SDS011;26723;57.478;12.066;2023-06-10T07:45:45;0.60;;;0.60;;
40995;SDS011;26723;57.478;12.066;2023-06-10T07:48:53;0.30;;;0.30;;
40995;SDS011;26723;57.478;12.066;2023-06-10T07:52:02;0.40;;;0.40;;
40995;SDS011;26723;57.478;12.066;2023-06-10T07:55:11;0.50;;;0.50;;
40995;SDS011;26723;57.478;12.066;2023-06-10T07:58:21;0.80;;;0.60;;
40995;SDS011;26723;57.478;12.066;2023-06-10T08:01:29;0.55;;;0.55;;
40995;SDS011;26723;57.478;12.066;2023-06-10T08:04:39;0.65;;;0.65;;
40995;SDS011;26723;57.478;12.066;2023-06-10T08:07:48;0.50;;;0.50;;
40995;SDS011;26723;57.478;12.066;2023-06-10T08:10:56;0.60;;;0.60;;
40995;SDS011;26723;57.478;12.066;2023-06-10T08:14:06;0.93;;;0.60;;
40995;SDS011;26723;57.478;12.066;2023-06-10T08:17:14;0.60;;;0.60;;
40995;SDS011;26723;57.478;12.066;2023-06-10T08:20:23;0.70;;;0.70;;
40995;SDS011;26723;57.478;12.066;2023-06-10T08:23:32;0.50;;;0.50;;
40995;SDS011;26723;57.478;12.066;2023-06-10T08:26:41;0.57;;;0.57;;
40995;SDS011;26723;57.478;12.066;2023-06-10T08:29:50;0.63;;;0.50;;
40995;SDS011;26723;57.478;12.066;2023-06-10T08:32:59;0.80;;;0.80;;
40995;SDS011;26723;57.478;12.066;2023-06-10T08:36:08;1.05;;;0.80;;
40995;SDS011;26723;57.478;12.066;2023-06-10T08:39:16;0.40;;;0.40;;
40995;SDS011;26723;57.478;12.066;2023-06-10T08:42:28;0.63;;;0.63;;
40995;SDS011;26723;57.478;12.066;2023-06-10T08:45:43;0.60;;;0.60;;
40995;SDS011;26723;57.478;12.066;2023-06-10T08:48:56;0.52;;;0.52;;
40995;SDS011;26723;57.478;12.066;2023-06-10T08:52:08;0.65;;;0.65;;
40995;SDS011;26723;57.478;12.066;2023-06-10T08:55:23;0.57;;;0.57;;
40995;SDS011;26723;57.478;12.066;2023-06-10T08:58:38;0.80;;;0.70;;
40995;SDS011;26723;57.478;12.066;2023-06-10T09:01:49;0.52;;;0.52;;
40995;SDS011;26723;57.478;12.066;2023-06-10T09:04:58;2.13;;;0.73;;
40995;SDS011;26723;57.478;12.066;2023-06-10T09:08:07;1.85;;;0.65;;
40995;SDS011;26723;57.478;12.066;2023-06-10T09:11:17;0.80;;;0.80;;
40995;SDS011;26723;57.478;12.066;2023-06-10T09:14:26;0.60;;;0.60;;
40995;SDS011;26723;57.478;12.066;2023-06-10T09:17:35;0.80;;;0.80;;
40995;SDS011;26723;57.478;12.066;2023-06-10T09:20:44;0.50;;;0.50;;
40995;SDS011;26723;57.478;12.066;2023-06-10T09:23:53;1.98;;;0.73;;
40995;SDS011;26723;57.478;12.066;2023-06-10T09:27:02;0.55;;;0.55;;
40995;SDS011;26723;57.478;12.066;2023-06-10T09:30:12;0.50;;;0.50;;
40995;SDS011;26723;57.478;12.066;2023-06-10T09:33:34;1.05;;;0.77;;
40995;SDS011;26723;57.478;12.066;2023-06-10T09:36:45;0.63;;;0.63;;
40995;SDS011;26723;57.478;12.066;2023-06-10T09:40:03;0.93;;;0.60;;
40995;SDS011;26723;57.478;12.066;2023-06-10T09:43:13;1.38;;;0.77;;
40995;SDS011;26723;57.478;12.066;2023-06-10T09:46:21;1.10;;;1.10;;
40995;SDS011;26723;57.478;12.066;2023-06-10T09:49:31;1.10;;;1.00;;
40995;SDS011;26723;57.478;12.066;2023-06-10T09:52:40;0.73;;;0.73;;
40995;SDS011;26723;57.478;12.066;2023-06-10T09:55:48;1.10;;;0.90;;
40995;SDS011;26723;57.478;12.066;2023-06-10T09:58:59;1.00;;;1.00;;
40995;SDS011;26723;57.478;12.066;2023-06-10T10:02:09;0.80;;;0.80;;
40995;SDS011;26723;57.478;12.066;2023-06-10T10:05:23;1.13;;;1.02;;
40995;SDS011;26723;57.478;12.066;2023-06-10T10:08:32;0.60;;;0.60;;
40995;SDS011;26723;57.478;12.066;2023-06-10T10:11:40;1.10;;;0.73;;
40995;SDS011;26723;57.478;12.066;2023-06-10T10:14:49;0.80;;;0.80;;
40995;SDS011;26723;57.478;12.066;2023-06-10T10:18:00;1.10;;;1.10;;
40995;SDS011;26723;57.478;12.066;2023-06-10T10:21:16;1.60;;;1.02;;
40995;SDS011;26723;57.478;12.066;2023-06-10T10:24:30;1.92;;;1.00;;
40995;SDS011;26723;57.478;12.066;2023-06-10T10:27:43;1.45;;;1.10;;
40995;SDS011;26723;57.478;12.066;2023-06-10T10:30:58;1.02;;;1.00;;
40995;SDS011;26723;57.478;12.066;2023-06-10T10:34:12;1.05;;;1.05;;
40995;SDS011;26723;57.478;12.066;2023-06-10T10:37:24;1.02;;;1.02;;
40995;SDS011;26723;57.478;12.066;2023-06-10T10:40:34;1.00;;;1.00;;
40995;SDS011;26723;57.478;12.066;2023-06-10T10:43:44;1.10;;;1.10;;
40995;SDS011;26723;57.478;12.066;2023-06-10T10:46:54;0.98;;;0.98;;
40995;SDS011;26723;57.478;12.066;2023-06-10T10:50:05;0.93;;;0.93;;
40995;SDS011;26723;57.478;12.066;2023-06-10T10:53:23;1.52;;;1.08;;
40995;SDS011;26723;57.478;12.066;2023-06-10T10:56:32;1.00;;;1.00;;
40995;SDS011;26723;57.478;12.066;2023-06-10T10:59:51;1.33;;;1.17;;
40995;SDS011;26723;57.478;12.066;2023-06-10T11:03:04;1.10;;;1.10;;
40995;SDS011;26723;57.478;12.066;2023-06-10T11:06:17;1.00;;;0.90;;
40995;SDS011;26723;57.478;12.066;2023-06-10T11:09:28;1.08;;;1.00;;
40995;SDS011;26723;57.478;12.066;2023-06-10T11:12:51;1.20;;;1.10;;
40995;SDS011;26723;57.478;12.066;2023-06-10T11:16:00;1.02;;;0.88;;
40995;SDS011;26723;57.478;12.066;2023-06-10T11:26:14;1.23;;;1.13;;
40995;SDS011;26723;57.478;12.066;2023-06-10T11:29:54;1.20;;;1.05;;
40995;SDS011;26723;57.478;12.066;2023-06-10T11:33:03;0.95;;;0.95;;
40995;SDS011;26723;57.478;12.066;2023-06-10T11:36:13;1.00;;;1.00;;
40995;SDS011;26723;57.478;12.066;2023-06-10T11:39:21;1.00;;;1.00;;
40995;SDS011;26723;57.478;12.066;2023-06-10T11:42:34;1.17;;;1.17;;
40995;SDS011;26723;57.478;12.066;2023-06-10T11:45:47;1.27;;;1.27;;
40995;SDS011;26723;57.478;12.066;2023-06-10T11:49:01;1.08;;;1.08;;
40995;SDS011;26723;57.478;12.066;2023-06-10T11:52:10;1.40;;;1.30;;
40995;SDS011;26723;57.478;12.066;2023-06-10T11:55:19;1.52;;;1.42;;
40995;SDS011;26723;57.478;12.066;2023-06-10T11:58:28;1.20;;;1.20;;
40995;SDS011;26723;57.478;12.066;2023-06-10T12:01:38;0.90;;;0.90;;
40995;SDS011;26723;57.478;12.066;2023-06-10T12:04:51;1.17;;;1.17;;
40995;SDS011;26723;57.478;12.066;2023-06-10T12:08:09;1.40;;;1.30;;
40995;SDS011;26723;57.478;12.066;2023-06-10T12:11:18;0.88;;;0.88;;
40995;SDS011;26723;57.478;12.066;2023-06-10T12:18:02;1.40;;;1.20;;
40995;SDS011;26723;57.478;12.066;2023-06-10T12:21:15;1.15;;;1.02;;
40995;SDS011;26723;57.478;12.066;2023-06-10T12:24:24;1.40;;;1.40;;
40995;SDS011;26723;57.478;12.066;2023-06-10T12:27:34;1.20;;;1.20;;
40995;SDS011;26723;57.478;12.066;2023-06-10T12:30:45;1.23;;;1.20;;
40995;SDS011;26723;57.478;12.066;2023-06-10T12:34:07;1.02;;;1.02;;
40995;SDS011;26723;57.478;12.066;2023-06-10T12:37:15;1.52;;;1.20;;
40995;SDS011;26723;57.478;12.066;2023-06-10T12:40:27;1.00;;;1.00;;
40995;SDS011;26723;57.478;12.066;2023-06-10T12:43:38;1.00;;;1.00;;
40995;SDS011;26723;57.478;12.066;2023-06-10T12:46:55;1.00;;;1.00;;
40995;SDS011;26723;57.478;12.066;2023-06-10T12:50:04;1.10;;;1.10;;
40995;SDS011;26723;57.478;12.066;2023-06-10T12:53:13;0.95;;;0.95;;
40995;SDS011;26723;57.478;12.066;2023-06-10T12:56:21;1.38;;;1.38;;
40995;SDS011;26723;57.478;12.066;2023-06-10T12:59:30;1.00;;;1.00;;
40995;SDS011;26723;57.478;12.066;2023-06-10T13:02:41;1.10;;;1.10;;
40995;SDS011;26723;57.478;12.066;2023-06-10T13:05:50;1.15;;;1.15;;
40995;SDS011;26723;57.478;12.066;2023-06-10T13:08:58;1.20;;;1.20;;
40995;SDS011;26723;57.478;12.066;2023-06-10T13:12:07;1.05;;;1.05;;
40995;SDS011;26723;57.478;12.066;2023-06-10T13:15:22;1.10;;;1.10;;
40995;SDS011;26723;57.478;12.066;2023-06-10T13:18:34;1.30;;;1.30;;
40995;SDS011;26723;57.478;12.066;2023-06-10T13:21:44;1.30;;;1.20;;
40995;SDS011;26723;57.478;12.066;2023-06-10T13:24:53;1.30;;;1.20;;
40995;SDS011;26723;57.478;12.066;2023-06-10T13:28:01;1.90;;;1.48;;
40995;SDS011;26723;57.478;12.066;2023-06-10T13:31:10;1.20;;;1.20;;
40995;SDS011;26723;57.478;12.066;2023-06-10T13:34:20;1.20;;;1.20;;
40995;SDS011;26723;57.478;12.066;2023-06-10T13:37:29;1.30;;;1.30;;
40995;SDS011;26723;57.478;12.066;2023-06-10T13:40:37;1.45;;;1.35;;
40995;SDS011;26723;57.478;12.066;2023-06-10T13:43:46;1.30;;;1.20;;
40995;SDS011;26723;57.478;12.066;2023-06-10T13:46:54;1.17;;;1.17;;
40995;SDS011;26723;57.478;12.066;2023-06-10T13:50:05;1.33;;;1.23;;
40995;SDS011;26723;57.478;12.066;2023-06-10T13:53:14;1.40;;;1.30;;
40995;SDS011;26723;57.478;12.066;2023-06-10T13:56:23;1.13;;;1.13;;
40995;SDS011;26723;57.478;12.066;2023-06-10T13:59:31;1.13;;;1.13;;
40995;SDS011;26723;57.478;12.066;2023-06-10T14:02:40;1.45;;;1.35;;
40995;SDS011;26723;57.478;12.066;2023-06-10T14:05:50;1.40;;;1.30;;
40995;SDS011;26723;57.478;12.066;2023-06-10T14:09:00;1.23;;;1.23;;
40995;SDS011;26723;57.478;12.066;2023-06-10T14:12:09;2.08;;;1.40;;
40995;SDS011;26723;57.478;12.066;2023-06-10T14:15:17;1.35;;;1.25;;
40995;SDS011;26723;57.478;12.066;2023-06-10T14:18:26;1.40;;;1.17;;
40995;SDS011;26723;57.478;12.066;2023-06-10T14:21:36;1.10;;;1.10;;
40995;SDS011;26723;57.478;12.066;2023-06-10T14:24:44;1.10;;;1.10;;
40995;SDS011;26723;57.478;12.066;2023-06-10T14:27:53;1.42;;;1.10;;
40995;SDS011;26723;57.478;12.066;2023-06-10T14:31:02;1.25;;;1.15;;
40995;SDS011;26723;57.478;12.066;2023-06-10T14:34:10;2.15;;;1.98;;
40995;SDS011;26723;57.478;12.066;2023-06-10T14:37:20;1.95;;;1.17;;
40995;SDS011;26723;57.478;12.066;2023-06-10T14:40:29;1.27;;;1.27;;
40995;SDS011;26723;57.478;12.066;2023-06-10T14:43:38;1.38;;;1.30;;
40995;SDS011;26723;57.478;12.066;2023-06-10T14:46:46;1.50;;;1.27;;
40995;SDS011;26723;57.478;12.066;2023-06-10T14:49:55;0.90;;;0.90;;
40995;SDS011;26723;57.478;12.066;2023-06-10T14:53:05;2.08;;;1.20;;
40995;SDS011;26723;57.478;12.066;2023-06-10T14:56:13;1.08;;;1.08;;
40995;SDS011;26723;57.478;12.066;2023-06-10T14:59:22;1.00;;;1.00;;
40995;SDS011;26723;57.478;12.066;2023-06-10T15:02:30;1.55;;;0.90;;
40995;SDS011;26723;57.478;12.066;2023-06-10T15:05:39;1.55;;;0.88;;
40995;SDS011;26723;57.478;12.066;2023-06-10T15:08:48;1.17;;;1.08;;
40995;SDS011;26723;57.478;12.066;2023-06-10T15:11:57;1.15;;;1.08;;
40995;SDS011;26723;57.478;12.066;2023-06-10T15:15:06;1.52;;;1.05;;
40995;SDS011;26723;57.478;12.066;2023-06-10T15:18:16;0.93;;;0.93;;
40995;SDS011;26723;57.478;12.066;2023-06-10T15:21:24;1.15;;;1.05;;
40995;SDS011;26723;57.478;12.066;2023-06-10T15:24:34;2.65;;;1.20;;
40995;SDS011;26723;57.478;12.066;2023-06-10T15:27:43;0.90;;;0.90;;
40995;SDS011;26723;57.478;12.066;2023-06-10T15:30:51;1.10;;;1.10;;
40995;SDS011;26723;57.478;12.066;2023-06-10T15:34:00;1.48;;;0.90;;
40995;SDS011;26723;57.478;12.066;2023-06-10T15:37:08;1.05;;;1.00;;
40995;SDS011;26723;57.478;12.066;2023-06-10T15:40:18;1.70;;;0.93;;
40995;SDS011;26723;57.478;12.066;2023-06-10T15:43:27;1.10;;;1.00;;
40995;SDS011;26723;57.478;12.066;2023-06-10T15:46:36;1.35;;;1.10;;
40995;SDS011;26723;57.478;12.066;2023-06-10T15:49:44;1.10;;;1.10;;
40995;SDS011;26723;57.478;12.066;2023-06-10T15:52:53;1.08;;;1.08;;
40995;SDS011;26723;57.478;12.066;2023-06-10T15:56:03;1.20;;;1.10;;
40995;SDS011;26723;57.478;12.066;2023-06-10T15:59:11;1.40;;;1.25;;
40995;SDS011;26723;57.478;12.066;2023-06-10T16:02:20;1.15;;;1.15;;
40995;SDS011;26723;57.478;12.066;2023-06-10T16:05:29;1.50;;;1.40;;
40995;SDS011;26723;57.478;12.066;2023-06-10T16:08:38;1.40;;;1.27;;
40995;SDS011;26723;57.478;12.066;2023-06-10T16:11:50;1.40;;;1.40;;
40995;SDS011;26723;57.478;12.066;2023-06-10T16:15:01;1.42;;;1.30;;
40995;SDS011;26723;57.478;12.066;2023-06-10T16:18:12;1.00;;;1.00;;
40995;SDS011;26723;57.478;12.066;2023-06-10T16:21:22;1.55;;;1.10;;
40995;SDS011;26723;57.478;12.066;2023-06-10T16:24:32;1.00;;;1.00;;
40995;SDS011;26723;57.478;12.066;2023-06-10T16:27:43;1.35;;;1.27;;
40995;SDS011;26723;57.478;12.066;2023-06-10T16:30:53;1.85;;;1.02;;
40995;SDS011;26723;57.478;12.066;2023-06-10T16:34:02;1.00;;;1.00;;
40995;SDS011;26723;57.478;12.066;2023-06-10T16:37:12;1.33;;;1.30;;
40995;SDS011;26723;57.478;12.066;2023-06-10T16:40:20;1.40;;;1.30;;
40995;SDS011;26723;57.478;12.066;2023-06-10T16:43:31;1.50;;;1.40;;
40995;SDS011;26723;57.478;12.066;2023-06-10T16:46:39;1.10;;;1.10;;
40995;SDS011;26723;57.478;12.066;2023-06-10T16:49:48;1.20;;;1.20;;
40995;SDS011;26723;57.478;12.066;2023-06-10T16:52:56;1.65;;;1.55;;
40995;SDS011;26723;57.478;12.066;2023-06-10T16:56:05;3.22;;;2.13;;
40995;SDS011;26723;57.478;12.066;2023-06-10T16:59:15;1.45;;;1.35;;
40995;SDS011;26723;57.478;12.066;2023-06-10T17:02:23;1.20;;;1.20;;
40995;SDS011;26723;57.478;12.066;2023-06-10T17:05:33;1.25;;;1.20;;
40995;SDS011;26723;57.478;12.066;2023-06-10T17:08:42;1.10;;;1.10;;
40995;SDS011;26723;57.478;12.066;2023-06-10T17:11:50;2.83;;;1.33;;
40995;SDS011;26723;57.478;12.066;2023-06-10T17:15:00;1.10;;;1.10;;
40995;SDS011;26723;57.478;12.066;2023-06-10T17:18:09;1.08;;;1.02;;
40995;SDS011;26723;57.478;12.066;2023-06-10T17:21:20;1.17;;;1.10;;
40995;SDS011;26723;57.478;12.066;2023-06-10T17:24:29;0.98;;;0.98;;
40995;SDS011;26723;57.478;12.066;2023-06-10T17:27:38;1.30;;;1.20;;
40995;SDS011;26723;57.478;12.066;2023-06-10T17:30:49;1.02;;;1.00;;
40995;SDS011;26723;57.478;12.066;2023-06-10T17:34:00;1.20;;;1.10;;
40995;SDS011;26723;57.478;12.066;2023-06-10T17:37:08;1.55;;;1.38;;
40995;SDS011;26723;57.478;12.066;2023-06-10T17:40:17;1.40;;;1.30;;
40995;SDS011;26723;57.478;12.066;2023-06-10T17:43:25;1.08;;;1.08;;
40995;SDS011;26723;57.478;12.066;2023-06-10T17:46:35;1.05;;;1.00;;
40995;SDS011;26723;57.478;12.066;2023-06-10T17:49:44;1.13;;;1.10;;
40995;SDS011;26723;57.478;12.066;2023-06-10T17:52:52;1.20;;;1.10;;
40995;SDS011;26723;57.478;12.066;2023-06-10T17:56:01;1.20;;;1.20;;
40995;SDS011;26723;57.478;12.066;2023-06-10T17:59:10;1.05;;;1.05;;
40995;SDS011;26723;57.478;12.066;2023-06-10T18:02:20;2.05;;;1.10;;
40995;SDS011;26723;57.478;12.066;2023-06-10T18:05:28;1.00;;;1.00;;
40995;SDS011;26723;57.478;12.066;2023-06-10T18:08:37;1.15;;;1.15;;
40995;SDS011;26723;57.478;12.066;2023-06-10T18:11:45;1.10;;;1.10;;
40995;SDS011;26723;57.478;12.066;2023-06-10T18:14:54;1.20;;;1.10;;
40995;SDS011;26723;57.478;12.066;2023-06-10T18:18:04;1.17;;;1.17;;
40995;SDS011;26723;57.478;12.066;2023-06-10T18:21:13;1.35;;;1.25;;
40995;SDS011;26723;57.478;12.066;2023-06-10T18:24:22;1.10;;;1.10;;
40995;SDS011;26723;57.478;12.066;2023-06-10T18:27:30;1.17;;;1.17;;
40995;SDS011;26723;57.478;12.066;2023-06-10T18:30:39;0.95;;;0.90;;
40995;SDS011;26723;57.478;12.066;2023-06-10T18:33:49;1.23;;;1.10;;
40995;SDS011;26723;57.478;12.066;2023-06-10T18:36:58;0.98;;;0.98;;
40995;SDS011;26723;57.478;12.066;2023-06-10T18:40:07;1.63;;;1.20;;
40995;SDS011;26723;57.478;12.066;2023-06-10T18:43:17;1.10;;;1.10;;
40995;SDS011;26723;57.478;12.066;2023-06-10T18:46:25;1.10;;;1.10;;
40995;SDS011;26723;57.478;12.066;2023-06-10T18:49:35;0.90;;;0.90;;
40995;SDS011;26723;57.478;12.066;2023-06-10T18:52:44;2.45;;;1.30;;
40995;SDS011;26723;57.478;12.066;2023-06-10T18:55:53;1.20;;;1.20;;